Terminal Aerodrome Forecast
Issued by NWS

Home | Current Version | Previous Version | Text Only | Print | Product List | Glossary On
Versions: 1 2 3 4 5 6 7 8 9 10 11 12 13 14 15 16
000
FTUS43 KEAX 231400 AAA
TAFSTJ
TAF AMD
KSTJ 231409Z 2314/2412 14014KT P6SM -SHRA OVC100
     FM231900 15017G25KT P6SM OVC120
     FM240900 31012KT P6SM VCTS SCT040 OVC080CB=

USA.gov is the U.S. government's official web portal to all federal, state and local government web resources and services.